sensor_id;sensor_type;location;lat;lon;timestamp;P1;durP1;ratioP1;P2;durP2;ratioP2
59512;SDS011;45330;51.634;5.562;2023-04-30T00:01:36;22.27;;;9.35;;
59512;SDS011;45330;51.634;5.562;2023-04-30T00:04:02;21.38;;;9.35;;
59512;SDS011;45330;51.634;5.562;2023-04-30T00:06:27;21.23;;;9.30;;
59512;SDS011;45330;51.634;5.562;2023-04-30T00:08:53;19.95;;;8.82;;
59512;SDS011;45330;51.634;5.562;2023-04-30T00:11:18;20.58;;;8.82;;
59512;SDS011;45330;51.634;5.562;2023-04-30T00:13:43;19.70;;;8.90;;
59512;SDS011;45330;51.634;5.562;2023-04-30T00:16:09;21.08;;;8.93;;
59512;SDS011;45330;51.634;5.562;2023-04-30T00:18:35;21.30;;;10.20;;
59512;SDS011;45330;51.634;5.562;2023-04-30T00:21:01;23.85;;;10.02;;
59512;SDS011;45330;51.634;5.562;2023-04-30T00:23:26;23.08;;;10.23;;
59512;SDS011;45330;51.634;5.562;2023-04-30T00:25:51;21.00;;;9.32;;
59512;SDS011;45330;51.634;5.562;2023-04-30T00:28:17;23.85;;;9.85;;
59512;SDS011;45330;51.634;5.562;2023-04-30T00:30:42;22.02;;;9.30;;
59512;SDS011;45330;51.634;5.562;2023-04-30T00:33:07;20.80;;;9.02;;
59512;SDS011;45330;51.634;5.562;2023-04-30T00:35:33;22.13;;;9.52;;
59512;SDS011;45330;51.634;5.562;2023-04-30T00:37:58;20.88;;;9.40;;
59512;SDS011;45330;51.634;5.562;2023-04-30T00:40:23;21.15;;;9.55;;
59512;SDS011;45330;51.634;5.562;2023-04-30T00:42:49;21.63;;;9.43;;
59512;SDS011;45330;51.634;5.562;2023-04-30T00:45:16;20.13;;;8.82;;
59512;SDS011;45330;51.634;5.562;2023-04-30T00:47:45;21.63;;;9.88;;
59512;SDS011;45330;51.634;5.562;2023-04-30T00:50:11;19.90;;;8.68;;
59512;SDS011;45330;51.634;5.562;2023-04-30T00:52:39;20.90;;;9.15;;
59512;SDS011;45330;51.634;5.562;2023-04-30T00:55:06;20.83;;;9.27;;
59512;SDS011;45330;51.634;5.562;2023-04-30T00:57:31;21.63;;;10.38;;
59512;SDS011;45330;51.634;5.562;2023-04-30T01:00:00;21.20;;;9.52;;
59512;SDS011;45330;51.634;5.562;2023-04-30T01:02:26;22.13;;;10.55;;
59512;SDS011;45330;51.634;5.562;2023-04-30T01:04:51;23.95;;;10.13;;
59512;SDS011;45330;51.634;5.562;2023-04-30T01:07:16;22.58;;;9.88;;
59512;SDS011;45330;51.634;5.562;2023-04-30T01:09:42;20.48;;;9.43;;
59512;SDS011;45330;51.634;5.562;2023-04-30T01:17:44;22.00;;;9.55;;
59512;SDS011;45330;51.634;5.562;2023-04-30T01:20:14;21.73;;;10.02;;
59512;SDS011;45330;51.634;5.562;2023-04-30T01:28:02;22.13;;;9.95;;
59512;SDS011;45330;51.634;5.562;2023-04-30T01:30:30;23.58;;;10.88;;
59512;SDS011;45330;51.634;5.562;2023-04-30T01:32:56;21.73;;;9.65;;
59512;SDS011;45330;51.634;5.562;2023-04-30T01:41:20;22.45;;;10.85;;
59512;SDS011;45330;51.634;5.562;2023-04-30T01:43:54;24.30;;;11.25;;
59512;SDS011;45330;51.634;5.562;2023-04-30T01:46:42;20.70;;;9.95;;
59512;SDS011;45330;51.634;5.562;2023-04-30T01:49:29;22.30;;;10.27;;
59512;SDS011;45330;51.634;5.562;2023-04-30T01:52:22;23.75;;;11.25;;
59512;SDS011;45330;51.634;5.562;2023-04-30T01:55:49;22.77;;;10.77;;
59512;SDS011;45330;51.634;5.562;2023-04-30T01:58:12;22.40;;;10.48;;
59512;SDS011;45330;51.634;5.562;2023-04-30T02:00:40;24.35;;;10.43;;
59512;SDS011;45330;51.634;5.562;2023-04-30T02:03:05;23.35;;;10.82;;
59512;SDS011;45330;51.634;5.562;2023-04-30T02:05:31;22.67;;;11.48;;
59512;SDS011;45330;51.634;5.562;2023-04-30T02:07:57;24.80;;;11.63;;
59512;SDS011;45330;51.634;5.562;2023-04-30T02:10:23;24.73;;;11.38;;
59512;SDS011;45330;51.634;5.562;2023-04-30T02:12:50;22.27;;;10.90;;
59512;SDS011;45330;51.634;5.562;2023-04-30T02:15:16;24.50;;;12.55;;
59512;SDS011;45330;51.634;5.562;2023-04-30T02:17:41;22.48;;;11.05;;
59512;SDS011;45330;51.634;5.562;2023-04-30T02:20:07;22.85;;;11.00;;
59512;SDS011;45330;51.634;5.562;2023-04-30T02:22:33;23.77;;;11.20;;
59512;SDS011;45330;51.634;5.562;2023-04-30T02:24:58;23.58;;;11.40;;
59512;SDS011;45330;51.634;5.562;2023-04-30T02:27:24;25.77;;;12.40;;
59512;SDS011;45330;51.634;5.562;2023-04-30T02:29:50;25.35;;;12.13;;
59512;SDS011;45330;51.634;5.562;2023-04-30T02:32:16;25.40;;;13.07;;
59512;SDS011;45330;51.634;5.562;2023-04-30T02:34:41;23.95;;;12.10;;
59512;SDS011;45330;51.634;5.562;2023-04-30T02:37:07;24.95;;;12.80;;
59512;SDS011;45330;51.634;5.562;2023-04-30T02:39:33;26.63;;;12.20;;
59512;SDS011;45330;51.634;5.562;2023-04-30T02:41:58;24.10;;;12.68;;
59512;SDS011;45330;51.634;5.562;2023-04-30T02:44:23;25.80;;;13.18;;
59512;SDS011;45330;51.634;5.562;2023-04-30T02:46:49;24.58;;;12.82;;
59512;SDS011;45330;51.634;5.562;2023-04-30T02:49:15;26.13;;;12.70;;
59512;SDS011;45330;51.634;5.562;2023-04-30T02:51:40;23.42;;;11.90;;
59512;SDS011;45330;51.634;5.562;2023-04-30T02:54:06;24.45;;;12.23;;
59512;SDS011;45330;51.634;5.562;2023-04-30T02:56:31;22.80;;;11.55;;
59512;SDS011;45330;51.634;5.562;2023-04-30T02:58:56;24.33;;;12.52;;
59512;SDS011;45330;51.634;5.562;2023-04-30T03:01:22;24.77;;;12.13;;
59512;SDS011;45330;51.634;5.562;2023-04-30T03:03:47;26.02;;;12.88;;
59512;SDS011;45330;51.634;5.562;2023-04-30T03:06:13;26.95;;;12.73;;
59512;SDS011;45330;51.634;5.562;2023-04-30T03:08:38;24.73;;;12.55;;
59512;SDS011;45330;51.634;5.562;2023-04-30T03:11:03;25.02;;;12.25;;
59512;SDS011;45330;51.634;5.562;2023-04-30T03:13:29;27.02;;;12.90;;
59512;SDS011;45330;51.634;5.562;2023-04-30T03:15:58;25.60;;;12.73;;
59512;SDS011;45330;51.634;5.562;2023-04-30T03:18:24;24.35;;;11.82;;
59512;SDS011;45330;51.634;5.562;2023-04-30T03:20:50;23.65;;;11.52;;
59512;SDS011;45330;51.634;5.562;2023-04-30T03:23:15;24.77;;;12.63;;
59512;SDS011;45330;51.634;5.562;2023-04-30T03:25:40;24.65;;;12.38;;
59512;SDS011;45330;51.634;5.562;2023-04-30T03:28:06;23.40;;;11.85;;
59512;SDS011;45330;51.634;5.562;2023-04-30T03:30:31;23.65;;;11.85;;
59512;SDS011;45330;51.634;5.562;2023-04-30T03:32:57;25.15;;;12.75;;
59512;SDS011;45330;51.634;5.562;2023-04-30T03:35:22;23.20;;;12.32;;
59512;SDS011;45330;51.634;5.562;2023-04-30T03:37:47;24.33;;;12.13;;
59512;SDS011;45330;51.634;5.562;2023-04-30T03:40:13;25.48;;;12.98;;
59512;SDS011;45330;51.634;5.562;2023-04-30T03:42:38;25.70;;;12.65;;
59512;SDS011;45330;51.634;5.562;2023-04-30T03:45:04;26.67;;;11.82;;
59512;SDS011;45330;51.634;5.562;2023-04-30T03:47:29;23.70;;;12.88;;
59512;SDS011;45330;51.634;5.562;2023-04-30T03:49:55;23.88;;;12.05;;
59512;SDS011;45330;51.634;5.562;2023-04-30T03:52:20;26.05;;;13.40;;
59512;SDS011;45330;51.634;5.562;2023-04-30T03:54:46;24.50;;;12.52;;
59512;SDS011;45330;51.634;5.562;2023-04-30T03:57:11;24.35;;;12.85;;
59512;SDS011;45330;51.634;5.562;2023-04-30T03:59:38;25.77;;;12.95;;
59512;SDS011;45330;51.634;5.562;2023-04-30T04:02:04;25.33;;;12.50;;
59512;SDS011;45330;51.634;5.562;2023-04-30T04:04:30;24.52;;;12.95;;
59512;SDS011;45330;51.634;5.562;2023-04-30T04:06:56;26.33;;;12.80;;
59512;SDS011;45330;51.634;5.562;2023-04-30T04:09:21;27.13;;;14.10;;
59512;SDS011;45330;51.634;5.562;2023-04-30T04:11:46;27.08;;;13.48;;
59512;SDS011;45330;51.634;5.562;2023-04-30T04:14:12;24.17;;;13.52;;
59512;SDS011;45330;51.634;5.562;2023-04-30T04:16:38;27.15;;;13.50;;
59512;SDS011;45330;51.634;5.562;2023-04-30T04:19:03;27.30;;;14.10;;
59512;SDS011;45330;51.634;5.562;2023-04-30T04:21:28;25.05;;;13.75;;
59512;SDS011;45330;51.634;5.562;2023-04-30T04:23:55;24.67;;;13.02;;
59512;SDS011;45330;51.634;5.562;2023-04-30T04:26:20;24.77;;;13.35;;
59512;SDS011;45330;51.634;5.562;2023-04-30T04:28:49;23.95;;;12.73;;
59512;SDS011;45330;51.634;5.562;2023-04-30T04:31:15;24.65;;;12.48;;
59512;SDS011;45330;51.634;5.562;2023-04-30T04:33:40;24.48;;;13.32;;
59512;SDS011;45330;51.634;5.562;2023-04-30T04:36:06;24.30;;;12.75;;
59512;SDS011;45330;51.634;5.562;2023-04-30T04:38:31;25.05;;;12.80;;
59512;SDS011;45330;51.634;5.562;2023-04-30T04:40:56;25.08;;;13.52;;
59512;SDS011;45330;51.634;5.562;2023-04-30T04:43:23;26.80;;;12.40;;
59512;SDS011;45330;51.634;5.562;2023-04-30T04:45:48;24.55;;;12.38;;
59512;SDS011;45330;51.634;5.562;2023-04-30T04:48:14;24.17;;;12.90;;
59512;SDS011;45330;51.634;5.562;2023-04-30T04:50:39;25.25;;;12.80;;
59512;SDS011;45330;51.634;5.562;2023-04-30T04:53:05;25.38;;;13.35;;
59512;SDS011;45330;51.634;5.562;2023-04-30T04:55:30;26.73;;;14.05;;
59512;SDS011;45330;51.634;5.562;2023-04-30T04:57:55;25.80;;;14.25;;
59512;SDS011;45330;51.634;5.562;2023-04-30T05:00:21;28.35;;;16.33;;
59512;SDS011;45330;51.634;5.562;2023-04-30T05:02:47;28.42;;;16.40;;
59512;SDS011;45330;51.634;5.562;2023-04-30T05:05:12;23.95;;;13.13;;
59512;SDS011;45330;51.634;5.562;2023-04-30T05:07:37;24.38;;;12.15;;
59512;SDS011;45330;51.634;5.562;2023-04-30T05:10:03;21.83;;;11.18;;
59512;SDS011;45330;51.634;5.562;2023-04-30T05:12:29;20.95;;;9.63;;
59512;SDS011;45330;51.634;5.562;2023-04-30T05:14:54;19.10;;;9.07;;
59512;SDS011;45330;51.634;5.562;2023-04-30T05:17:20;20.48;;;9.50;;
59512;SDS011;45330;51.634;5.562;2023-04-30T05:19:45;19.25;;;8.25;;
59512;SDS011;45330;51.634;5.562;2023-04-30T05:22:12;19.40;;;9.00;;
59512;SDS011;45330;51.634;5.562;2023-04-30T05:24:38;18.27;;;8.07;;
59512;SDS011;45330;51.634;5.562;2023-04-30T05:27:04;19.95;;;8.48;;
59512;SDS011;45330;51.634;5.562;2023-04-30T05:29:29;19.48;;;8.27;;
59512;SDS011;45330;51.634;5.562;2023-04-30T05:31:55;19.23;;;8.27;;
59512;SDS011;45330;51.634;5.562;2023-04-30T05:34:21;19.17;;;7.78;;
59512;SDS011;45330;51.634;5.562;2023-04-30T05:36:46;19.48;;;8.02;;
59512;SDS011;45330;51.634;5.562;2023-04-30T05:39:11;18.30;;;7.88;;
59512;SDS011;45330;51.634;5.562;2023-04-30T05:41:37;19.27;;;8.30;;
59512;SDS011;45330;51.634;5.562;2023-04-30T05:44:02;19.17;;;8.50;;
59512;SDS011;45330;51.634;5.562;2023-04-30T05:46:29;20.13;;;8.30;;
59512;SDS011;45330;51.634;5.562;2023-04-30T05:48:54;16.75;;;7.53;;
59512;SDS011;45330;51.634;5.562;2023-04-30T05:51:20;18.05;;;7.95;;
59512;SDS011;45330;51.634;5.562;2023-04-30T05:53:45;17.65;;;7.68;;
59512;SDS011;45330;51.634;5.562;2023-04-30T05:56:10;19.65;;;8.48;;
59512;SDS011;45330;51.634;5.562;2023-04-30T05:58:36;18.30;;;8.00;;
59512;SDS011;45330;51.634;5.562;2023-04-30T06:01:02;18.00;;;7.93;;
59512;SDS011;45330;51.634;5.562;2023-04-30T06:03:28;16.35;;;7.75;;
59512;SDS011;45330;51.634;5.562;2023-04-30T06:05:53;19.48;;;8.18;;
59512;SDS011;45330;51.634;5.562;2023-04-30T06:08:19;17.20;;;7.70;;
59512;SDS011;45330;51.634;5.562;2023-04-30T06:10:44;19.45;;;7.65;;
59512;SDS011;45330;51.634;5.562;2023-04-30T06:13:10;17.70;;;7.70;;
59512;SDS011;45330;51.634;5.562;2023-04-30T06:15:35;16.95;;;7.53;;
59512;SDS011;45330;51.634;5.562;2023-04-30T06:18:01;16.75;;;7.47;;
59512;SDS011;45330;51.634;5.562;2023-04-30T06:20:26;17.38;;;7.45;;
59512;SDS011;45330;51.634;5.562;2023-04-30T06:22:52;16.70;;;7.50;;
59512;SDS011;45330;51.634;5.562;2023-04-30T06:25:17;17.10;;;7.13;;
59512;SDS011;45330;51.634;5.562;2023-04-30T06:27:44;16.95;;;7.75;;
59512;SDS011;45330;51.634;5.562;2023-04-30T06:30:10;16.92;;;7.57;;
59512;SDS011;45330;51.634;5.562;2023-04-30T06:32:36;17.90;;;8.27;;
59512;SDS011;45330;51.634;5.562;2023-04-30T06:35:01;17.55;;;8.35;;
59512;SDS011;45330;51.634;5.562;2023-04-30T06:37:26;18.73;;;8.65;;
59512;SDS011;45330;51.634;5.562;2023-04-30T06:39:52;19.02;;;8.70;;
59512;SDS011;45330;51.634;5.562;2023-04-30T06:42:17;22.83;;;9.48;;
59512;SDS011;45330;51.634;5.562;2023-04-30T06:44:42;20.42;;;9.57;;
59512;SDS011;45330;51.634;5.562;2023-04-30T06:47:09;19.17;;;9.02;;
59512;SDS011;45330;51.634;5.562;2023-04-30T06:49:35;19.98;;;9.73;;
59512;SDS011;45330;51.634;5.562;2023-04-30T06:52:00;21.45;;;9.35;;
59512;SDS011;45330;51.634;5.562;2023-04-30T06:54:25;19.45;;;9.50;;
59512;SDS011;45330;51.634;5.562;2023-04-30T06:56:51;19.50;;;9.43;;
59512;SDS011;45330;51.634;5.562;2023-04-30T06:59:17;20.85;;;9.93;;
59512;SDS011;45330;51.634;5.562;2023-04-30T07:01:43;20.70;;;9.48;;
59512;SDS011;45330;51.634;5.562;2023-04-30T07:04:08;21.00;;;9.75;;
59512;SDS011;45330;51.634;5.562;2023-04-30T07:06:34;20.63;;;9.70;;
59512;SDS011;45330;51.634;5.562;2023-04-30T07:08:59;21.50;;;9.80;;
59512;SDS011;45330;51.634;5.562;2023-04-30T07:11:24;20.85;;;10.20;;
59512;SDS011;45330;51.634;5.562;2023-04-30T07:13:50;20.40;;;10.20;;
59512;SDS011;45330;51.634;5.562;2023-04-30T07:16:15;20.67;;;10.50;;
59512;SDS011;45330;51.634;5.562;2023-04-30T07:18:41;21.70;;;10.40;;
59512;SDS011;45330;51.634;5.562;2023-04-30T07:21:07;20.52;;;11.25;;
59512;SDS011;45330;51.634;5.562;2023-04-30T07:23:32;21.95;;;10.65;;
59512;SDS011;45330;51.634;5.562;2023-04-30T07:25:58;20.70;;;10.70;;
59512;SDS011;45330;51.634;5.562;2023-04-30T07:28:24;20.00;;;10.27;;
59512;SDS011;45330;51.634;5.562;2023-04-30T07:30:49;20.63;;;10.20;;
59512;SDS011;45330;51.634;5.562;2023-04-30T07:33:15;21.85;;;10.52;;
59512;SDS011;45330;51.634;5.562;2023-04-30T07:35:40;21.15;;;11.63;;
59512;SDS011;45330;51.634;5.562;2023-04-30T07:38:06;22.05;;;11.57;;
59512;SDS011;45330;51.634;5.562;2023-04-30T07:40:31;22.65;;;11.38;;
59512;SDS011;45330;51.634;5.562;2023-04-30T07:42:56;21.98;;;10.88;;
59512;SDS011;45330;51.634;5.562;2023-04-30T07:45:22;21.40;;;10.65;;
59512;SDS011;45330;51.634;5.562;2023-04-30T07:47:47;22.42;;;11.02;;
59512;SDS011;45330;51.634;5.562;2023-04-30T07:50:13;23.83;;;11.68;;
59512;SDS011;45330;51.634;5.562;2023-04-30T07:52:39;21.52;;;10.98;;
59512;SDS011;45330;51.634;5.562;2023-04-30T07:55:05;20.75;;;10.82;;
59512;SDS011;45330;51.634;5.562;2023-04-30T07:57:31;21.48;;;10.15;;
59512;SDS011;45330;51.634;5.562;2023-04-30T07:59:56;20.75;;;10.32;;
59512;SDS011;45330;51.634;5.562;2023-04-30T08:02:22;22.27;;;10.77;;
59512;SDS011;45330;51.634;5.562;2023-04-30T08:04:47;21.98;;;11.60;;
59512;SDS011;45330;51.634;5.562;2023-04-30T08:07:13;22.25;;;11.30;;
59512;SDS011;45330;51.634;5.562;2023-04-30T08:09:40;21.30;;;11.55;;
59512;SDS011;45330;51.634;5.562;2023-04-30T08:12:05;21.63;;;11.60;;
59512;SDS011;45330;51.634;5.562;2023-04-30T08:14:31;22.83;;;11.80;;
59512;SDS011;45330;51.634;5.562;2023-04-30T08:16:57;21.02;;;9.98;;
59512;SDS011;45330;51.634;5.562;2023-04-30T08:19:24;21.80;;;10.55;;
59512;SDS011;45330;51.634;5.562;2023-04-30T08:21:49;22.08;;;11.35;;
59512;SDS011;45330;51.634;5.562;2023-04-30T08:24:15;21.45;;;11.60;;
59512;SDS011;45330;51.634;5.562;2023-04-30T08:26:40;24.30;;;12.02;;
59512;SDS011;45330;51.634;5.562;2023-04-30T08:29:06;21.52;;;10.73;;
59512;SDS011;45330;51.634;5.562;2023-04-30T08:31:32;20.33;;;10.95;;
59512;SDS011;45330;51.634;5.562;2023-04-30T08:33:58;21.38;;;10.73;;
59512;SDS011;45330;51.634;5.562;2023-04-30T08:36:23;21.42;;;10.32;;
59512;SDS011;45330;51.634;5.562;2023-04-30T08:38:49;21.77;;;11.02;;
59512;SDS011;45330;51.634;5.562;2023-04-30T08:41:14;21.20;;;10.25;;
59512;SDS011;45330;51.634;5.562;2023-04-30T08:43:40;21.88;;;10.38;;
59512;SDS011;45330;51.634;5.562;2023-04-30T08:46:06;20.17;;;9.88;;
59512;SDS011;45330;51.634;5.562;2023-04-30T08:48:32;20.77;;;9.85;;
59512;SDS011;45330;51.634;5.562;2023-04-30T08:51:01;19.70;;;9.18;;
59512;SDS011;45330;51.634;5.562;2023-04-30T08:53:33;20.92;;;10.05;;
59512;SDS011;45330;51.634;5.562;2023-04-30T08:55:59;20.67;;;10.18;;
59512;SDS011;45330;51.634;5.562;2023-04-30T08:58:25;21.17;;;10.27;;
59512;SDS011;45330;51.634;5.562;2023-04-30T09:00:50;20.77;;;10.20;;
59512;SDS011;45330;51.634;5.562;2023-04-30T09:03:16;19.77;;;9.95;;
59512;SDS011;45330;51.634;5.562;2023-04-30T09:05:41;22.23;;;10.50;;
59512;SDS011;45330;51.634;5.562;2023-04-30T09:08:07;20.55;;;9.90;;
59512;SDS011;45330;51.634;5.562;2023-04-30T09:10:33;20.38;;;8.73;;
59512;SDS011;45330;51.634;5.562;2023-04-30T09:13:00;21.05;;;9.95;;
59512;SDS011;45330;51.634;5.562;2023-04-30T09:15:33;20.98;;;9.13;;
59512;SDS011;45330;51.634;5.562;2023-04-30T09:18:16;18.33;;;7.78;;
59512;SDS011;45330;51.634;5.562;2023-04-30T09:23:21;19.23;;;8.32;;
59512;SDS011;45330;51.634;5.562;2023-04-30T09:25:46;18.60;;;7.50;;
59512;SDS011;45330;51.634;5.562;2023-04-30T09:28:12;19.65;;;8.25;;
59512;SDS011;45330;51.634;5.562;2023-04-30T09:30:41;17.52;;;7.60;;
59512;SDS011;45330;51.634;5.562;2023-04-30T09:33:07;15.82;;;7.18;;
59512;SDS011;45330;51.634;5.562;2023-04-30T09:35:33;18.10;;;7.85;;
59512;SDS011;45330;51.634;5.562;2023-04-30T09:46:20;17.65;;;7.43;;
59512;SDS011;45330;51.634;5.562;2023-04-30T09:48:48;17.00;;;7.10;;
59512;SDS011;45330;51.634;5.562;2023-04-30T09:51:21;16.92;;;6.57;;
59512;SDS011;45330;51.634;5.562;2023-04-30T09:53:47;16.77;;;7.22;;
59512;SDS011;45330;51.634;5.562;2023-04-30T09:56:13;14.77;;;6.57;;
59512;SDS011;45330;51.634;5.562;2023-04-30T09:58:43;16.67;;;7.10;;
59512;SDS011;45330;51.634;5.562;2023-04-30T10:01:13;17.80;;;7.00;;
59512;SDS011;45330;51.634;5.562;2023-04-30T10:03:40;15.95;;;6.78;;
59512;SDS011;45330;51.634;5.562;2023-04-30T10:06:06;15.15;;;6.85;;
59512;SDS011;45330;51.634;5.562;2023-04-30T10:08:38;15.57;;;6.97;;
59512;SDS011;45330;51.634;5.562;2023-04-30T10:11:08;13.65;;;6.65;;
59512;SDS011;45330;51.634;5.562;2023-04-30T10:19:22;13.18;;;5.97;;
59512;SDS011;45330;51.634;5.562;2023-04-30T10:21:49;14.60;;;6.00;;
59512;SDS011;45330;51.634;5.562;2023-04-30T10:24:16;16.60;;;7.10;;
59512;SDS011;45330;51.634;5.562;2023-04-30T10:26:43;16.33;;;7.35;;
59512;SDS011;45330;51.634;5.562;2023-04-30T10:29:10;17.02;;;6.50;;
59512;SDS011;45330;51.634;5.562;2023-04-30T10:31:37;12.70;;;5.60;;
59512;SDS011;45330;51.634;5.562;2023-04-30T10:34:10;14.13;;;5.55;;
59512;SDS011;45330;51.634;5.562;2023-04-30T10:36:42;13.57;;;5.40;;
59512;SDS011;45330;51.634;5.562;2023-04-30T10:39:21;12.63;;;5.45;;
59512;SDS011;45330;51.634;5.562;2023-04-30T10:41:51;13.57;;;6.20;;
59512;SDS011;45330;51.634;5.562;2023-04-30T10:44:24;13.77;;;5.47;;
59512;SDS011;45330;51.634;5.562;2023-04-30T10:46:57;12.63;;;5.18;;
59512;SDS011;45330;51.634;5.562;2023-04-30T10:49:25;14.30;;;5.57;;
59512;SDS011;45330;51.634;5.562;2023-04-30T10:51:51;12.25;;;5.43;;
59512;SDS011;45330;51.634;5.562;2023-04-30T10:54:26;10.93;;;4.72;;
59512;SDS011;45330;51.634;5.562;2023-04-30T10:56:53;13.00;;;5.43;;
59512;SDS011;45330;51.634;5.562;2023-04-30T10:59:33;12.20;;;5.32;;
59512;SDS011;45330;51.634;5.562;2023-04-30T11:02:00;12.80;;;5.43;;
59512;SDS011;45330;51.634;5.562;2023-04-30T11:04:26;12.05;;;5.50;;
59512;SDS011;45330;51.634;5.562;2023-04-30T11:09:18;12.75;;;5.20;;
59512;SDS011;45330;51.634;5.562;2023-04-30T11:11:44;12.85;;;5.50;;
59512;SDS011;45330;51.634;5.562;2023-04-30T11:14:11;10.80;;;5.25;;
59512;SDS011;45330;51.634;5.562;2023-04-30T11:16:47;11.63;;;4.88;;
59512;SDS011;45330;51.634;5.562;2023-04-30T11:19:13;12.60;;;4.85;;
59512;SDS011;45330;51.634;5.562;2023-04-30T11:21:40;10.52;;;4.88;;
59512;SDS011;45330;51.634;5.562;2023-04-30T11:27:18;10.35;;;4.57;;
59512;SDS011;45330;51.634;5.562;2023-04-30T11:29:44;10.75;;;4.72;;
59512;SDS011;45330;51.634;5.562;2023-04-30T11:32:10;10.52;;;4.97;;
59512;SDS011;45330;51.634;5.562;2023-04-30T11:34:36;7.38;;;3.55;;
59512;SDS011;45330;51.634;5.562;2023-04-30T11:37:02;9.38;;;3.88;;
59512;SDS011;45330;51.634;5.562;2023-04-30T11:39:27;10.27;;;4.38;;
59512;SDS011;45330;51.634;5.562;2023-04-30T11:41:56;9.85;;;4.30;;
59512;SDS011;45330;51.634;5.562;2023-04-30T11:44:22;8.75;;;3.40;;
59512;SDS011;45330;51.634;5.562;2023-04-30T11:46:50;8.07;;;3.58;;
59512;SDS011;45330;51.634;5.562;2023-04-30T11:49:15;9.48;;;3.83;;
59512;SDS011;45330;51.634;5.562;2023-04-30T11:51:41;8.60;;;3.92;;
59512;SDS011;45330;51.634;5.562;2023-04-30T11:54:07;10.43;;;4.10;;
59512;SDS011;45330;51.634;5.562;2023-04-30T11:56:36;7.30;;;3.50;;
59512;SDS011;45330;51.634;5.562;2023-04-30T11:59:07;7.55;;;3.72;;
59512;SDS011;45330;51.634;5.562;2023-04-30T12:01:34;8.95;;;3.47;;
59512;SDS011;45330;51.634;5.562;2023-04-30T12:04:00;8.50;;;4.10;;
59512;SDS011;45330;51.634;5.562;2023-04-30T12:06:28;9.60;;;3.47;;
59512;SDS011;45330;51.634;5.562;2023-04-30T12:08:58;9.38;;;3.65;;
59512;SDS011;45330;51.634;5.562;2023-04-30T12:14:01;8.70;;;4.20;;
59512;SDS011;45330;51.634;5.562;2023-04-30T12:16:38;10.23;;;4.25;;
59512;SDS011;45330;51.634;5.562;2023-04-30T12:19:14;8.93;;;3.97;;
59512;SDS011;45330;51.634;5.562;2023-04-30T12:21:41;7.82;;;3.60;;
59512;SDS011;45330;51.634;5.562;2023-04-30T12:24:11;7.05;;;3.58;;
59512;SDS011;45330;51.634;5.562;2023-04-30T12:26:37;5.72;;;3.42;;
59512;SDS011;45330;51.634;5.562;2023-04-30T12:29:06;9.25;;;4.03;;
59512;SDS011;45330;51.634;5.562;2023-04-30T12:34:05;8.65;;;3.90;;
59512;SDS011;45330;51.634;5.562;2023-04-30T12:36:32;9.48;;;4.18;;
59512;SDS011;45330;51.634;5.562;2023-04-30T12:39:13;12.45;;;4.20;;
59512;SDS011;45330;51.634;5.562;2023-04-30T12:41:43;7.10;;;3.58;;
59512;SDS011;45330;51.634;5.562;2023-04-30T12:46:39;11.90;;;4.28;;
59512;SDS011;45330;51.634;5.562;2023-04-30T12:49:05;8.90;;;4.00;;
59512;SDS011;45330;51.634;5.562;2023-04-30T12:51:33;11.05;;;4.05;;
59512;SDS011;45330;51.634;5.562;2023-04-30T12:54:00;9.93;;;4.20;;
59512;SDS011;45330;51.634;5.562;2023-04-30T12:56:25;9.50;;;4.38;;
59512;SDS011;45330;51.634;5.562;2023-04-30T12:58:51;8.77;;;3.55;;
59512;SDS011;45330;51.634;5.562;2023-04-30T13:01:20;11.00;;;3.83;;
59512;SDS011;45330;51.634;5.562;2023-04-30T13:03:46;7.85;;;3.20;;
59512;SDS011;45330;51.634;5.562;2023-04-30T13:06:12;5.50;;;2.90;;
59512;SDS011;45330;51.634;5.562;2023-04-30T13:08:37;6.18;;;2.80;;
59512;SDS011;45330;51.634;5.562;2023-04-30T13:11:03;6.97;;;3.08;;
59512;SDS011;45330;51.634;5.562;2023-04-30T13:13:29;3.88;;;2.50;;
59512;SDS011;45330;51.634;5.562;2023-04-30T13:15:55;4.05;;;2.20;;
59512;SDS011;45330;51.634;5.562;2023-04-30T13:18:20;3.55;;;2.60;;
59512;SDS011;45330;51.634;5.562;2023-04-30T13:20:46;9.15;;;3.63;;
59512;SDS011;45330;51.634;5.562;2023-04-30T13:23:11;14.75;;;3.90;;
59512;SDS011;45330;51.634;5.562;2023-04-30T13:25:37;9.75;;;3.67;;
59512;SDS011;45330;51.634;5.562;2023-04-30T13:28:04;6.97;;;3.45;;
59512;SDS011;45330;51.634;5.562;2023-04-30T13:30:29;8.70;;;4.15;;
59512;SDS011;45330;51.634;5.562;2023-04-30T13:32:54;8.23;;;3.58;;
59512;SDS011;45330;51.634;5.562;2023-04-30T13:35:20;7.70;;;3.17;;
59512;SDS011;45330;51.634;5.562;2023-04-30T13:37:45;6.75;;;3.53;;
59512;SDS011;45330;51.634;5.562;2023-04-30T13:40:16;8.45;;;3.40;;
59512;SDS011;45330;51.634;5.562;2023-04-30T13:42:43;8.07;;;3.55;;
59512;SDS011;45330;51.634;5.562;2023-04-30T13:45:10;7.20;;;3.30;;
59512;SDS011;45330;51.634;5.562;2023-04-30T13:47:36;8.13;;;3.00;;
59512;SDS011;45330;51.634;5.562;2023-04-30T13:50:02;9.02;;;3.30;;
59512;SDS011;45330;51.634;5.562;2023-04-30T13:52:29;5.90;;;3.45;;
59512;SDS011;45330;51.634;5.562;2023-04-30T13:54:55;8.63;;;3.55;;
59512;SDS011;45330;51.634;5.562;2023-04-30T13:57:21;5.28;;;3.08;;
59512;SDS011;45330;51.634;5.562;2023-04-30T13:59:47;9.40;;;3.50;;
59512;SDS011;45330;51.634;5.562;2023-04-30T14:02:13;5.82;;;3.28;;
59512;SDS011;45330;51.634;5.562;2023-04-30T14:04:38;7.72;;;3.30;;
59512;SDS011;45330;51.634;5.562;2023-04-30T14:07:03;10.98;;;3.65;;
59512;SDS011;45330;51.634;5.562;2023-04-30T14:09:29;7.90;;;3.42;;
59512;SDS011;45330;51.634;5.562;2023-04-30T14:11:55;7.63;;;3.17;;
59512;SDS011;45330;51.634;5.562;2023-04-30T14:14:23;5.82;;;3.25;;
59512;SDS011;45330;51.634;5.562;2023-04-30T14:16:49;6.78;;;3.30;;
59512;SDS011;45330;51.634;5.562;2023-04-30T14:19:14;6.45;;;2.90;;
59512;SDS011;45330;51.634;5.562;2023-04-30T14:21:39;7.57;;;2.70;;
59512;SDS011;45330;51.634;5.562;2023-04-30T14:24:05;6.25;;;2.72;;
59512;SDS011;45330;51.634;5.562;2023-04-30T14:26:30;5.95;;;3.05;;
59512;SDS011;45330;51.634;5.562;2023-04-30T14:28:56;7.70;;;3.30;;
59512;SDS011;45330;51.634;5.562;2023-04-30T14:31:21;9.73;;;3.60;;
59512;SDS011;45330;51.634;5.562;2023-04-30T14:33:47;4.15;;;2.80;;
59512;SDS011;45330;51.634;5.562;2023-04-30T14:36:12;5.90;;;2.83;;
59512;SDS011;45330;51.634;5.562;2023-04-30T14:38:38;4.72;;;2.70;;
59512;SDS011;45330;51.634;5.562;2023-04-30T14:41:03;7.07;;;2.90;;
59512;SDS011;45330;51.634;5.562;2023-04-30T14:43:29;5.70;;;3.10;;
59512;SDS011;45330;51.634;5.562;2023-04-30T14:45:54;8.48;;;3.33;;
59512;SDS011;45330;51.634;5.562;2023-04-30T14:48:19;5.57;;;2.83;;
59512;SDS011;45330;51.634;5.562;2023-04-30T14:50:45;5.38;;;2.70;;
59512;SDS011;45330;51.634;5.562;2023-04-30T14:53:10;7.60;;;2.70;;
59512;SDS011;45330;51.634;5.562;2023-04-30T14:55:36;10.00;;;3.00;;
59512;SDS011;45330;51.634;5.562;2023-04-30T14:58:03;6.85;;;3.10;;
59512;SDS011;45330;51.634;5.562;2023-04-30T15:00:29;9.23;;;3.03;;
59512;SDS011;45330;51.634;5.562;2023-04-30T15:02:55;8.55;;;3.20;;
59512;SDS011;45330;51.634;5.562;2023-04-30T15:05:21;7.47;;;2.70;;
59512;SDS011;45330;51.634;5.562;2023-04-30T15:07:46;9.93;;;3.25;;
59512;SDS011;45330;51.634;5.562;2023-04-30T15:10:12;5.50;;;2.70;;
59512;SDS011;45330;51.634;5.562;2023-04-30T15:12:37;5.85;;;2.80;;
59512;SDS011;45330;51.634;5.562;2023-04-30T15:15:03;6.03;;;2.70;;
59512;SDS011;45330;51.634;5.562;2023-04-30T15:17:30;4.35;;;2.53;;